sensor_id;sensor_type;location;lat;lon;timestamp;P1;durP1;ratioP1;P2;durP2;ratioP2
80334;SDS011;69653;52.674;13.574;2023-11-21T00:01:37;32.85;;;12.77;;
80334;SDS011;69653;52.674;13.574;2023-11-21T00:04:03;30.45;;;12.90;;
80334;SDS011;69653;52.674;13.574;2023-11-21T00:06:28;27.42;;;12.07;;
80334;SDS011;69653;52.674;13.574;2023-11-21T00:08:55;28.27;;;13.05;;
80334;SDS011;69653;52.674;13.574;2023-11-21T00:11:21;34.58;;;13.30;;
80334;SDS011;69653;52.674;13.574;2023-11-21T00:13:46;32.77;;;12.67;;
80334;SDS011;69653;52.674;13.574;2023-11-21T00:16:11;25.27;;;11.07;;
80334;SDS011;69653;52.674;13.574;2023-11-21T00:18:37;35.17;;;14.40;;
80334;SDS011;69653;52.674;13.574;2023-11-21T00:21:02;34.43;;;15.07;;
80334;SDS011;69653;52.674;13.574;2023-11-21T00:23:28;36.47;;;14.18;;
80334;SDS011;69653;52.674;13.574;2023-11-21T00:25:54;37.00;;;15.73;;
80334;SDS011;69653;52.674;13.574;2023-11-21T00:28:19;44.70;;;16.33;;
80334;SDS011;69653;52.674;13.574;2023-11-21T00:30:44;39.47;;;14.27;;
80334;SDS011;69653;52.674;13.574;2023-11-21T00:33:10;47.22;;;17.70;;
80334;SDS011;69653;52.674;13.574;2023-11-21T00:35:36;42.53;;;17.35;;
80334;SDS011;69653;52.674;13.574;2023-11-21T00:38:01;44.05;;;16.35;;
80334;SDS011;69653;52.674;13.574;2023-11-21T00:40:28;46.90;;;16.77;;
80334;SDS011;69653;52.674;13.574;2023-11-21T00:42:53;47.05;;;16.23;;
80334;SDS011;69653;52.674;13.574;2023-11-21T00:45:20;43.83;;;19.13;;
80334;SDS011;69653;52.674;13.574;2023-11-21T00:47:46;41.92;;;16.35;;
80334;SDS011;69653;52.674;13.574;2023-11-21T00:50:11;50.47;;;17.33;;
80334;SDS011;69653;52.674;13.574;2023-11-21T00:52:37;44.03;;;16.13;;
80334;SDS011;69653;52.674;13.574;2023-11-21T00:55:03;44.00;;;14.60;;
80334;SDS011;69653;52.674;13.574;2023-11-21T00:57:29;44.92;;;15.30;;
80334;SDS011;69653;52.674;13.574;2023-11-21T00:59:55;35.77;;;13.40;;
80334;SDS011;69653;52.674;13.574;2023-11-21T01:02:20;39.60;;;14.27;;
80334;SDS011;69653;52.674;13.574;2023-11-21T01:04:45;45.63;;;13.23;;
80334;SDS011;69653;52.674;13.574;2023-11-21T01:07:12;36.88;;;12.32;;
80334;SDS011;69653;52.674;13.574;2023-11-21T01:09:38;31.30;;;12.27;;
80334;SDS011;69653;52.674;13.574;2023-11-21T01:12:04;29.63;;;10.65;;
80334;SDS011;69653;52.674;13.574;2023-11-21T01:14:29;30.85;;;11.00;;
80334;SDS011;69653;52.674;13.574;2023-11-21T01:16:54;36.03;;;12.63;;
80334;SDS011;69653;52.674;13.574;2023-11-21T01:19:20;32.45;;;11.95;;
80334;SDS011;69653;52.674;13.574;2023-11-21T01:21:45;28.30;;;11.63;;
80334;SDS011;69653;52.674;13.574;2023-11-21T01:24:11;28.38;;;9.93;;
80334;SDS011;69653;52.674;13.574;2023-11-21T01:26:36;26.07;;;11.20;;
80334;SDS011;69653;52.674;13.574;2023-11-21T01:29:02;29.40;;;9.68;;
80334;SDS011;69653;52.674;13.574;2023-11-21T01:31:27;30.67;;;9.73;;
80334;SDS011;69653;52.674;13.574;2023-11-21T01:33:54;26.85;;;10.48;;
80334;SDS011;69653;52.674;13.574;2023-11-21T01:36:20;22.98;;;9.88;;
80334;SDS011;69653;52.674;13.574;2023-11-21T01:38:46;22.77;;;8.75;;
80334;SDS011;69653;52.674;13.574;2023-11-21T01:41:13;21.30;;;9.13;;
80334;SDS011;69653;52.674;13.574;2023-11-21T01:43:38;20.58;;;8.70;;
80334;SDS011;69653;52.674;13.574;2023-11-21T01:46:04;22.17;;;8.37;;
80334;SDS011;69653;52.674;13.574;2023-11-21T01:48:31;23.65;;;8.65;;
80334;SDS011;69653;52.674;13.574;2023-11-21T01:50:57;19.48;;;8.65;;
80334;SDS011;69653;52.674;13.574;2023-11-21T01:53:26;17.48;;;8.07;;
80334;SDS011;69653;52.674;13.574;2023-11-21T01:55:53;21.35;;;7.28;;
80334;SDS011;69653;52.674;13.574;2023-11-21T01:58:19;19.05;;;8.32;;
80334;SDS011;69653;52.674;13.574;2023-11-21T02:00:45;15.35;;;7.30;;
80334;SDS011;69653;52.674;13.574;2023-11-21T02:03:10;18.02;;;7.32;;
80334;SDS011;69653;52.674;13.574;2023-11-21T02:05:35;17.70;;;7.87;;
80334;SDS011;69653;52.674;13.574;2023-11-21T02:08:01;17.20;;;7.63;;
80334;SDS011;69653;52.674;13.574;2023-11-21T02:10:27;16.05;;;7.30;;
80334;SDS011;69653;52.674;13.574;2023-11-21T02:12:54;16.75;;;7.43;;
80334;SDS011;69653;52.674;13.574;2023-11-21T02:15:21;14.18;;;7.38;;
80334;SDS011;69653;52.674;13.574;2023-11-21T02:17:48;17.35;;;7.20;;
80334;SDS011;69653;52.674;13.574;2023-11-21T02:20:16;14.15;;;7.03;;
80334;SDS011;69653;52.674;13.574;2023-11-21T02:22:43;16.33;;;7.88;;
80334;SDS011;69653;52.674;13.574;2023-11-21T02:25:10;15.50;;;7.53;;
80334;SDS011;69653;52.674;13.574;2023-11-21T02:27:36;14.95;;;7.22;;
80334;SDS011;69653;52.674;13.574;2023-11-21T02:30:02;13.93;;;8.02;;
80334;SDS011;69653;52.674;13.574;2023-11-21T02:32:29;16.08;;;8.02;;
80334;SDS011;69653;52.674;13.574;2023-11-21T02:34:56;13.25;;;6.00;;
80334;SDS011;69653;52.674;13.574;2023-11-21T02:37:25;15.80;;;7.32;;
80334;SDS011;69653;52.674;13.574;2023-11-21T02:39:51;13.77;;;7.38;;
80334;SDS011;69653;52.674;13.574;2023-11-21T02:42:17;14.95;;;7.13;;
80334;SDS011;69653;52.674;13.574;2023-11-21T02:44:43;13.13;;;7.10;;
80334;SDS011;69653;52.674;13.574;2023-11-21T02:47:08;12.55;;;6.45;;
80334;SDS011;69653;52.674;13.574;2023-11-21T02:49:34;13.07;;;7.13;;
80334;SDS011;69653;52.674;13.574;2023-11-21T02:52:00;10.93;;;6.55;;
80334;SDS011;69653;52.674;13.574;2023-11-21T02:54:26;14.25;;;7.28;;
80334;SDS011;69653;52.674;13.574;2023-11-21T02:56:52;12.77;;;6.60;;
80334;SDS011;69653;52.674;13.574;2023-11-21T02:59:17;13.53;;;6.60;;
80334;SDS011;69653;52.674;13.574;2023-11-21T03:01:43;14.18;;;6.03;;
80334;SDS011;69653;52.674;13.574;2023-11-21T03:04:08;13.37;;;7.00;;
80334;SDS011;69653;52.674;13.574;2023-11-21T03:06:33;11.17;;;5.87;;
80334;SDS011;69653;52.674;13.574;2023-11-21T03:08:59;10.85;;;6.60;;
80334;SDS011;69653;52.674;13.574;2023-11-21T03:11:24;12.33;;;6.40;;
80334;SDS011;69653;52.674;13.574;2023-11-21T03:13:49;12.70;;;6.93;;
80334;SDS011;69653;52.674;13.574;2023-11-21T03:16:15;10.47;;;5.57;;
80334;SDS011;69653;52.674;13.574;2023-11-21T03:18:41;11.90;;;5.97;;
80334;SDS011;69653;52.674;13.574;2023-11-21T03:21:06;10.07;;;6.53;;
80334;SDS011;69653;52.674;13.574;2023-11-21T03:23:36;11.32;;;6.20;;
80334;SDS011;69653;52.674;13.574;2023-11-21T03:26:02;12.82;;;6.15;;
80334;SDS011;69653;52.674;13.574;2023-11-21T03:28:27;12.70;;;6.78;;
80334;SDS011;69653;52.674;13.574;2023-11-21T03:30:53;11.50;;;5.57;;
80334;SDS011;69653;52.674;13.574;2023-11-21T03:33:18;13.77;;;6.68;;
80334;SDS011;69653;52.674;13.574;2023-11-21T03:35:44;11.65;;;6.00;;
80334;SDS011;69653;52.674;13.574;2023-11-21T03:38:09;12.47;;;5.90;;
80334;SDS011;69653;52.674;13.574;2023-11-21T03:40:35;11.52;;;5.80;;
80334;SDS011;69653;52.674;13.574;2023-11-21T03:43:01;13.18;;;5.97;;
80334;SDS011;69653;52.674;13.574;2023-11-21T03:45:26;11.93;;;5.35;;
80334;SDS011;69653;52.674;13.574;2023-11-21T03:47:51;10.83;;;5.30;;
80334;SDS011;69653;52.674;13.574;2023-11-21T03:50:17;10.53;;;5.50;;
80334;SDS011;69653;52.674;13.574;2023-11-21T03:52:42;11.43;;;5.93;;
80334;SDS011;69653;52.674;13.574;2023-11-21T03:55:08;11.60;;;6.20;;
80334;SDS011;69653;52.674;13.574;2023-11-21T03:57:33;13.02;;;5.47;;
80334;SDS011;69653;52.674;13.574;2023-11-21T03:59:58;12.30;;;5.73;;
80334;SDS011;69653;52.674;13.574;2023-11-21T04:02:24;10.73;;;5.27;;
80334;SDS011;69653;52.674;13.574;2023-11-21T04:04:51;10.48;;;4.85;;
80334;SDS011;69653;52.674;13.574;2023-11-21T04:07:16;8.95;;;5.18;;
80334;SDS011;69653;52.674;13.574;2023-11-21T04:09:42;9.93;;;5.38;;
80334;SDS011;69653;52.674;13.574;2023-11-21T04:12:08;9.18;;;4.65;;
80334;SDS011;69653;52.674;13.574;2023-11-21T04:14:36;11.13;;;5.90;;
80334;SDS011;69653;52.674;13.574;2023-11-21T04:17:01;10.90;;;5.77;;
80334;SDS011;69653;52.674;13.574;2023-11-21T04:19:26;10.57;;;4.97;;
80334;SDS011;69653;52.674;13.574;2023-11-21T04:21:52;10.73;;;5.47;;
80334;SDS011;69653;52.674;13.574;2023-11-21T04:24:17;9.40;;;5.10;;
80334;SDS011;69653;52.674;13.574;2023-11-21T04:26:46;8.80;;;4.47;;
80334;SDS011;69653;52.674;13.574;2023-11-21T04:29:11;9.23;;;4.32;;
80334;SDS011;69653;52.674;13.574;2023-11-21T04:31:37;8.18;;;3.95;;
80334;SDS011;69653;52.674;13.574;2023-11-21T04:34:02;8.30;;;4.05;;
80334;SDS011;69653;52.674;13.574;2023-11-21T04:36:29;7.55;;;3.40;;
80334;SDS011;69653;52.674;13.574;2023-11-21T04:38:55;8.98;;;3.20;;
80334;SDS011;69653;52.674;13.574;2023-11-21T04:41:21;8.52;;;4.40;;
80334;SDS011;69653;52.674;13.574;2023-11-21T04:43:46;10.20;;;4.17;;
80334;SDS011;69653;52.674;13.574;2023-11-21T04:46:12;8.13;;;3.90;;
80334;SDS011;69653;52.674;13.574;2023-11-21T04:48:37;8.87;;;4.73;;
80334;SDS011;69653;52.674;13.574;2023-11-21T04:51:03;9.13;;;4.35;;
80334;SDS011;69653;52.674;13.574;2023-11-21T04:53:29;9.07;;;4.88;;
80334;SDS011;69653;52.674;13.574;2023-11-21T04:55:55;8.43;;;3.85;;
80334;SDS011;69653;52.674;13.574;2023-11-21T04:58:20;7.70;;;4.63;;
80334;SDS011;69653;52.674;13.574;2023-11-21T05:00:45;9.65;;;5.50;;
80334;SDS011;69653;52.674;13.574;2023-11-21T05:03:11;10.02;;;4.00;;
80334;SDS011;69653;52.674;13.574;2023-11-21T05:05:37;8.95;;;4.18;;
80334;SDS011;69653;52.674;13.574;2023-11-21T05:08:02;9.52;;;4.38;;
80334;SDS011;69653;52.674;13.574;2023-11-21T05:10:28;6.22;;;3.92;;
80334;SDS011;69653;52.674;13.574;2023-11-21T05:12:54;8.07;;;4.22;;
80334;SDS011;69653;52.674;13.574;2023-11-21T05:15:20;7.25;;;3.80;;
80334;SDS011;69653;52.674;13.574;2023-11-21T05:17:46;7.28;;;4.00;;
80334;SDS011;69653;52.674;13.574;2023-11-21T05:20:15;8.00;;;4.45;;
80334;SDS011;69653;52.674;13.574;2023-11-21T05:22:46;7.07;;;3.38;;
80334;SDS011;69653;52.674;13.574;2023-11-21T05:25:13;9.30;;;4.53;;
80334;SDS011;69653;52.674;13.574;2023-11-21T05:27:39;9.68;;;4.47;;
80334;SDS011;69653;52.674;13.574;2023-11-21T05:30:05;11.73;;;4.23;;
80334;SDS011;69653;52.674;13.574;2023-11-21T05:32:31;8.20;;;4.13;;
80334;SDS011;69653;52.674;13.574;2023-11-21T05:34:58;8.77;;;4.13;;
80334;SDS011;69653;52.674;13.574;2023-11-21T05:37:23;8.65;;;3.90;;
80334;SDS011;69653;52.674;13.574;2023-11-21T05:39:49;7.23;;;3.33;;
80334;SDS011;69653;52.674;13.574;2023-11-21T05:42:14;6.72;;;3.60;;
80334;SDS011;69653;52.674;13.574;2023-11-21T05:44:41;7.50;;;3.60;;
80334;SDS011;69653;52.674;13.574;2023-11-21T05:47:08;6.53;;;3.20;;
80334;SDS011;69653;52.674;13.574;2023-11-21T05:49:33;7.35;;;3.15;;
80334;SDS011;69653;52.674;13.574;2023-11-21T05:51:59;8.40;;;3.83;;
80334;SDS011;69653;52.674;13.574;2023-11-21T05:54:24;7.78;;;3.78;;
80334;SDS011;69653;52.674;13.574;2023-11-21T05:56:51;7.60;;;3.83;;
80334;SDS011;69653;52.674;13.574;2023-11-21T05:59:16;9.97;;;3.97;;
80334;SDS011;69653;52.674;13.574;2023-11-21T06:01:41;6.20;;;3.20;;
80334;SDS011;69653;52.674;13.574;2023-11-21T06:04:06;6.37;;;3.50;;
80334;SDS011;69653;52.674;13.574;2023-11-21T06:06:34;7.97;;;3.88;;
80334;SDS011;69653;52.674;13.574;2023-11-21T06:09:00;8.73;;;4.53;;
80334;SDS011;69653;52.674;13.574;2023-11-21T06:11:25;6.77;;;3.70;;
80334;SDS011;69653;52.674;13.574;2023-11-21T06:13:50;9.37;;;4.53;;
80334;SDS011;69653;52.674;13.574;2023-11-21T06:16:17;8.80;;;3.95;;
80334;SDS011;69653;52.674;13.574;2023-11-21T06:18:44;7.53;;;3.75;;
80334;SDS011;69653;52.674;13.574;2023-11-21T06:21:10;8.80;;;4.05;;
80334;SDS011;69653;52.674;13.574;2023-11-21T06:23:36;9.00;;;3.83;;
80334;SDS011;69653;52.674;13.574;2023-11-21T06:26:01;5.78;;;3.58;;
80334;SDS011;69653;52.674;13.574;2023-11-21T06:28:26;6.77;;;3.67;;
80334;SDS011;69653;52.674;13.574;2023-11-21T06:30:52;7.37;;;3.50;;
80334;SDS011;69653;52.674;13.574;2023-11-21T06:33:18;6.50;;;3.40;;
80334;SDS011;69653;52.674;13.574;2023-11-21T06:35:44;7.53;;;3.85;;
80334;SDS011;69653;52.674;13.574;2023-11-21T06:38:09;8.07;;;3.85;;
80334;SDS011;69653;52.674;13.574;2023-11-21T06:40:35;7.68;;;3.83;;
80334;SDS011;69653;52.674;13.574;2023-11-21T06:43:00;7.73;;;4.03;;
80334;SDS011;69653;52.674;13.574;2023-11-21T06:45:26;7.78;;;3.38;;
80334;SDS011;69653;52.674;13.574;2023-11-21T06:47:51;7.07;;;3.70;;
80334;SDS011;69653;52.674;13.574;2023-11-21T06:50:17;7.43;;;3.50;;
80334;SDS011;69653;52.674;13.574;2023-11-21T06:52:42;7.18;;;3.67;;
80334;SDS011;69653;52.674;13.574;2023-11-21T06:55:08;7.47;;;3.72;;
80334;SDS011;69653;52.674;13.574;2023-11-21T06:57:34;7.47;;;4.00;;
80334;SDS011;69653;52.674;13.574;2023-11-21T07:00:00;8.32;;;3.80;;
80334;SDS011;69653;52.674;13.574;2023-11-21T07:02:26;7.53;;;4.22;;
80334;SDS011;69653;52.674;13.574;2023-11-21T07:04:51;10.13;;;4.43;;
80334;SDS011;69653;52.674;13.574;2023-11-21T07:07:18;8.80;;;4.87;;
80334;SDS011;69653;52.674;13.574;2023-11-21T07:09:44;14.38;;;5.93;;
80334;SDS011;69653;52.674;13.574;2023-11-21T07:12:09;13.38;;;5.03;;
80334;SDS011;69653;52.674;13.574;2023-11-21T07:14:36;10.27;;;5.13;;
80334;SDS011;69653;52.674;13.574;2023-11-21T07:17:04;10.23;;;4.43;;
80334;SDS011;69653;52.674;13.574;2023-11-21T07:19:29;11.00;;;4.82;;
80334;SDS011;69653;52.674;13.574;2023-11-21T07:21:54;12.90;;;5.30;;
80334;SDS011;69653;52.674;13.574;2023-11-21T07:24:20;10.57;;;4.93;;
80334;SDS011;69653;52.674;13.574;2023-11-21T07:26:46;10.00;;;4.28;;
80334;SDS011;69653;52.674;13.574;2023-11-21T07:29:13;8.73;;;3.92;;
80334;SDS011;69653;52.674;13.574;2023-11-21T07:31:38;8.45;;;4.20;;
80334;SDS011;69653;52.674;13.574;2023-11-21T07:34:03;8.48;;;4.07;;
80334;SDS011;69653;52.674;13.574;2023-11-21T07:36:29;8.33;;;4.37;;
80334;SDS011;69653;52.674;13.574;2023-11-21T07:38:54;9.10;;;3.90;;
80334;SDS011;69653;52.674;13.574;2023-11-21T07:41:20;7.67;;;3.73;;
80334;SDS011;69653;52.674;13.574;2023-11-21T07:43:46;7.72;;;4.13;;
80334;SDS011;69653;52.674;13.574;2023-11-21T07:46:12;8.68;;;4.30;;
80334;SDS011;69653;52.674;13.574;2023-11-21T07:48:38;9.10;;;4.47;;
80334;SDS011;69653;52.674;13.574;2023-11-21T07:51:04;10.95;;;4.90;;
80334;SDS011;69653;52.674;13.574;2023-11-21T07:53:30;11.52;;;4.05;;
80334;SDS011;69653;52.674;13.574;2023-11-21T07:55:56;12.32;;;4.38;;
80334;SDS011;69653;52.674;13.574;2023-11-21T07:58:22;11.10;;;4.40;;
80334;SDS011;69653;52.674;13.574;2023-11-21T08:00:47;8.13;;;4.22;;
80334;SDS011;69653;52.674;13.574;2023-11-21T08:03:13;12.93;;;4.13;;
80334;SDS011;69653;52.674;13.574;2023-11-21T08:05:39;11.13;;;4.65;;
80334;SDS011;69653;52.674;13.574;2023-11-21T08:08:05;14.35;;;5.20;;
80334;SDS011;69653;52.674;13.574;2023-11-21T08:10:30;12.53;;;4.73;;
80334;SDS011;69653;52.674;13.574;2023-11-21T08:12:56;12.60;;;5.17;;
80334;SDS011;69653;52.674;13.574;2023-11-21T08:15:21;13.93;;;5.47;;
80334;SDS011;69653;52.674;13.574;2023-11-21T08:17:47;11.15;;;4.80;;
80334;SDS011;69653;52.674;13.574;2023-11-21T08:20:13;14.82;;;5.40;;
80334;SDS011;69653;52.674;13.574;2023-11-21T08:22:41;14.35;;;5.65;;
80334;SDS011;69653;52.674;13.574;2023-11-21T08:25:09;15.95;;;5.75;;
80334;SDS011;69653;52.674;13.574;2023-11-21T08:27:35;14.73;;;5.22;;
80334;SDS011;69653;52.674;13.574;2023-11-21T08:30:02;14.55;;;6.05;;
80334;SDS011;69653;52.674;13.574;2023-11-21T08:32:28;18.23;;;6.22;;
80334;SDS011;69653;52.674;13.574;2023-11-21T08:34:55;14.80;;;5.45;;
80334;SDS011;69653;52.674;13.574;2023-11-21T08:37:21;14.27;;;5.47;;
80334;SDS011;69653;52.674;13.574;2023-11-21T08:39:47;14.63;;;5.93;;
80334;SDS011;69653;52.674;13.574;2023-11-21T08:42:13;16.52;;;7.00;;
80334;SDS011;69653;52.674;13.574;2023-11-21T08:44:39;15.25;;;5.65;;
80334;SDS011;69653;52.674;13.574;2023-11-21T08:47:05;17.92;;;5.68;;
80334;SDS011;69653;52.674;13.574;2023-11-21T08:49:31;13.38;;;5.05;;
80334;SDS011;69653;52.674;13.574;2023-11-21T08:51:57;13.60;;;4.13;;
80334;SDS011;69653;52.674;13.574;2023-11-21T08:54:24;16.98;;;4.97;;
80334;SDS011;69653;52.674;13.574;2023-11-21T08:56:50;11.20;;;4.20;;
80334;SDS011;69653;52.674;13.574;2023-11-21T08:59:16;10.20;;;4.18;;
80334;SDS011;69653;52.674;13.574;2023-11-21T09:01:42;9.27;;;3.53;;
80334;SDS011;69653;52.674;13.574;2023-11-21T09:04:07;6.75;;;2.63;;
80334;SDS011;69653;52.674;13.574;2023-11-21T09:06:33;6.80;;;2.30;;
80334;SDS011;69653;52.674;13.574;2023-11-21T09:08:58;4.73;;;2.13;;
80334;SDS011;69653;52.674;13.574;2023-11-21T09:11:23;6.77;;;2.17;;
80334;SDS011;69653;52.674;13.574;2023-11-21T09:13:50;8.45;;;2.28;;
80334;SDS011;69653;52.674;13.574;2023-11-21T09:16:16;5.68;;;2.40;;
80334;SDS011;69653;52.674;13.574;2023-11-21T09:18:42;4.07;;;1.55;;
80334;SDS011;69653;52.674;13.574;2023-11-21T09:21:07;4.63;;;1.80;;
80334;SDS011;69653;52.674;13.574;2023-11-21T09:23:33;4.25;;;1.83;;
80334;SDS011;69653;52.674;13.574;2023-11-21T09:25:59;5.15;;;1.95;;
80334;SDS011;69653;52.674;13.574;2023-11-21T09:28:26;4.38;;;2.03;;
80334;SDS011;69653;52.674;13.574;2023-11-21T09:30:52;4.20;;;1.63;;
80334;SDS011;69653;52.674;13.574;2023-11-21T09:33:18;3.60;;;1.90;;
80334;SDS011;69653;52.674;13.574;2023-11-21T09:35:45;4.68;;;2.00;;
80334;SDS011;69653;52.674;13.574;2023-11-21T09:38:11;4.78;;;1.88;;
80334;SDS011;69653;52.674;13.574;2023-11-21T09:40:37;4.33;;;2.20;;
80334;SDS011;69653;52.674;13.574;2023-11-21T09:43:09;5.25;;;2.20;;
80334;SDS011;69653;52.674;13.574;2023-11-21T09:45:44;4.70;;;2.22;;
80334;SDS011;69653;52.674;13.574;2023-11-21T09:48:12;3.92;;;2.10;;
80334;SDS011;69653;52.674;13.574;2023-11-21T09:50:39;4.18;;;2.00;;
80334;SDS011;69653;52.674;13.574;2023-11-21T09:55:40;4.40;;;2.33;;
80334;SDS011;69653;52.674;13.574;2023-11-21T09:58:11;5.47;;;2.45;;
80334;SDS011;69653;52.674;13.574;2023-11-21T10:00:41;3.80;;;2.00;;
80334;SDS011;69653;52.674;13.574;2023-11-21T10:03:08;5.47;;;2.40;;
80334;SDS011;69653;52.674;13.574;2023-11-21T10:05:35;5.15;;;2.42;;
80334;SDS011;69653;52.674;13.574;2023-11-21T10:08:01;5.47;;;2.53;;
80334;SDS011;69653;52.674;13.574;2023-11-21T10:10:32;4.93;;;2.55;;
80334;SDS011;69653;52.674;13.574;2023-11-21T10:12:57;7.78;;;2.45;;
80334;SDS011;69653;52.674;13.574;2023-11-21T10:15:27;5.00;;;2.67;;
80334;SDS011;69653;52.674;13.574;2023-11-21T10:17:54;4.43;;;2.55;;
80334;SDS011;69653;52.674;13.574;2023-11-21T10:20:20;4.88;;;2.08;;
80334;SDS011;69653;52.674;13.574;2023-11-21T10:22:47;5.28;;;2.75;;
80334;SDS011;69653;52.674;13.574;2023-11-21T10:25:12;5.63;;;2.47;;
80334;SDS011;69653;52.674;13.574;2023-11-21T10:27:41;5.60;;;2.50;;
80334;SDS011;69653;52.674;13.574;2023-11-21T10:30:08;5.63;;;3.05;;
80334;SDS011;69653;52.674;13.574;2023-11-21T10:32:41;4.90;;;2.58;;
80334;SDS011;69653;52.674;13.574;2023-11-21T10:35:08;4.75;;;2.42;;
80334;SDS011;69653;52.674;13.574;2023-11-21T10:37:37;4.57;;;2.80;;
80334;SDS011;69653;52.674;13.574;2023-11-21T10:40:05;5.68;;;2.60;;
80334;SDS011;69653;52.674;13.574;2023-11-21T10:42:37;4.45;;;2.53;;
80334;SDS011;69653;52.674;13.574;2023-11-21T10:45:03;4.50;;;2.25;;
80334;SDS011;69653;52.674;13.574;2023-11-21T10:47:34;4.75;;;2.50;;
80334;SDS011;69653;52.674;13.574;2023-11-21T10:50:01;5.18;;;3.05;;
80334;SDS011;69653;52.674;13.574;2023-11-21T10:52:28;4.45;;;2.50;;
80334;SDS011;69653;52.674;13.574;2023-11-21T10:54:54;4.53;;;2.13;;
80334;SDS011;69653;52.674;13.574;2023-11-21T10:57:19;4.87;;;2.57;;
80334;SDS011;69653;52.674;13.574;2023-11-21T10:59:48;6.57;;;3.22;;
80334;SDS011;69653;52.674;13.574;2023-11-21T11:02:24;4.85;;;2.83;;
80334;SDS011;69653;52.674;13.574;2023-11-21T11:04:53;4.85;;;2.47;;
80334;SDS011;69653;52.674;13.574;2023-11-21T11:07:25;3.88;;;1.83;;
80334;SDS011;69653;52.674;13.574;2023-11-21T11:09:52;5.57;;;2.58;;
80334;SDS011;69653;52.674;13.574;2023-11-21T11:12:19;4.70;;;2.67;;
80334;SDS011;69653;52.674;13.574;2023-11-21T11:14:45;5.70;;;2.63;;
80334;SDS011;69653;52.674;13.574;2023-11-21T11:17:10;4.97;;;2.63;;
80334;SDS011;69653;52.674;13.574;2023-11-21T11:19:36;4.90;;;2.58;;
80334;SDS011;69653;52.674;13.574;2023-11-21T11:33:21;6.90;;;2.40;;
80334;SDS011;69653;52.674;13.574;2023-11-21T11:38:45;3.58;;;1.85;;
80334;SDS011;69653;52.674;13.574;2023-11-21T11:41:11;3.90;;;1.92;;
80334;SDS011;69653;52.674;13.574;2023-11-21T11:43:37;4.20;;;2.00;;
80334;SDS011;69653;52.674;13.574;2023-11-21T11:46:09;4.70;;;2.20;;
80334;SDS011;69653;52.674;13.574;2023-11-21T11:48:39;3.63;;;1.65;;
80334;SDS011;69653;52.674;13.574;2023-11-21T11:51:14;5.00;;;2.25;;
80334;SDS011;69653;52.674;13.574;2023-11-21T11:53:42;5.05;;;2.20;;
80334;SDS011;69653;52.674;13.574;2023-11-21T11:56:30;4.32;;;2.22;;
80334;SDS011;69653;52.674;13.574;2023-11-21T11:58:57;4.88;;;2.40;;
80334;SDS011;69653;52.674;13.574;2023-11-21T12:01:25;4.47;;;2.20;;
80334;SDS011;69653;52.674;13.574;2023-11-21T12:06:36;5.25;;;2.55;;
80334;SDS011;69653;52.674;13.574;2023-11-21T12:09:04;5.18;;;2.88;;
80334;SDS011;69653;52.674;13.574;2023-11-21T12:11:30;4.97;;;2.95;;
80334;SDS011;69653;52.674;13.574;2023-11-21T12:13:57;5.55;;;2.60;;
80334;SDS011;69653;52.674;13.574;2023-11-21T12:16:24;5.28;;;2.60;;
80334;SDS011;69653;52.674;13.574;2023-11-21T12:18:52;6.10;;;2.50;;
80334;SDS011;69653;52.674;13.574;2023-11-21T12:21:18;6.32;;;3.28;;
80334;SDS011;69653;52.674;13.574;2023-11-21T12:23:44;6.78;;;3.10;;
80334;SDS011;69653;52.674;13.574;2023-11-21T12:26:11;5.25;;;3.13;;
80334;SDS011;69653;52.674;13.574;2023-11-21T12:28:37;6.13;;;3.25;;
80334;SDS011;69653;52.674;13.574;2023-11-21T12:31:03;6.15;;;3.38;;
80334;SDS011;69653;52.674;13.574;2023-11-21T12:33:31;5.38;;;2.70;;
80334;SDS011;69653;52.674;13.574;2023-11-21T12:35:58;5.20;;;2.83;;
80334;SDS011;69653;52.674;13.574;2023-11-21T12:38:23;4.78;;;2.33;;
80334;SDS011;69653;52.674;13.574;2023-11-21T12:40:49;6.63;;;3.17;;
80334;SDS011;69653;52.674;13.574;2023-11-21T12:43:15;6.70;;;3.40;;
80334;SDS011;69653;52.674;13.574;2023-11-21T12:45:43;6.50;;;3.22;;
80334;SDS011;69653;52.674;13.574;2023-11-21T12:48:09;7.45;;;3.30;;
80334;SDS011;69653;52.674;13.574;2023-11-21T12:50:36;6.68;;;3.25;;
80334;SDS011;69653;52.674;13.574;2023-11-21T12:53:10;8.70;;;3.90;;
80334;SDS011;69653;52.674;13.574;2023-11-21T12:55:43;7.28;;;3.58;;
80334;SDS011;69653;52.674;13.574;2023-11-21T12:58:15;5.97;;;3.17;;
80334;SDS011;69653;52.674;13.574;2023-11-21T13:00:47;6.90;;;3.80;;
80334;SDS011;69653;52.674;13.574;2023-11-21T13:03:14;6.30;;;3.40;;
80334;SDS011;69653;52.674;13.574;2023-11-21T13:05:48;8.95;;;4.10;;
80334;SDS011;69653;52.674;13.574;2023-11-21T13:08:16;6.03;;;3.45;;
80334;SDS011;69653;52.674;13.574;2023-11-21T13:10:45;6.45;;;3.53;;
80334;SDS011;69653;52.674;13.574;2023-11-21T13:13:13;8.07;;;4.28;;
80334;SDS011;69653;52.674;13.574;2023-11-21T13:15:49;7.53;;;3.95;;
80334;SDS011;69653;52.674;13.574;2023-11-21T13:18:15;8.45;;;4.53;;
80334;SDS011;69653;52.674;13.574;2023-11-21T13:20:41;8.70;;;4.32;;
80334;SDS011;69653;52.674;13.574;2023-11-21T13:23:08;10.90;;;4.60;;
80334;SDS011;69653;52.674;13.574;2023-11-21T13:25:37;8.65;;;4.22;;
80334;SDS011;69653;52.674;13.574;2023-11-21T13:28:04;10.88;;;6.45;;
80334;SDS011;69653;52.674;13.574;2023-11-21T13:30:30;10.55;;;5.70;;
80334;SDS011;69653;52.674;13.574;2023-11-21T13:33:01;13.07;;;6.30;;
80334;SDS011;69653;52.674;13.574;2023-11-21T13:35:30;13.90;;;6.57;;
80334;SDS011;69653;52.674;13.574;2023-11-21T13:38:04;13.48;;;7.63;;
80334;SDS011;69653;52.674;13.574;2023-11-21T13:40:31;14.23;;;8.10;;
80334;SDS011;69653;52.674;13.574;2023-11-21T13:42:59;14.95;;;8.05;;
80334;SDS011;69653;52.674;13.574;2023-11-21T13:45:29;14.68;;;7.80;;
80334;SDS011;69653;52.674;13.574;2023-11-21T13:47:54;15.13;;;7.03;;
80334;SDS011;69653;52.674;13.574;2023-11-21T13:50:26;21.23;;;9.45;;
80334;SDS011;69653;52.674;13.574;2023-11-21T13:53:01;17.60;;;9.73;;
80334;SDS011;69653;52.674;13.574;2023-11-21T13:55:36;17.58;;;9.13;;
80334;SDS011;69653;52.674;13.574;2023-11-21T13:58:02;18.35;;;10.57;;
80334;SDS011;69653;52.674;13.574;2023-11-21T14:00:29;17.90;;;9.07;;
80334;SDS011;69653;52.674;13.574;2023-11-21T14:03:11;19.08;;;9.35;;
80334;SDS011;69653;52.674;13.574;2023-11-21T14:05:47;18.38;;;9.85;;
80334;SDS011;69653;52.674;13.574;2023-11-21T14:08:19;17.90;;;9.25;;
80334;SDS011;69653;52.674;13.574;2023-11-21T14:10:47;19.65;;;9.68;;
80334;SDS011;69653;52.674;13.574;2023-11-21T14:13:20;16.73;;;9.23;;
80334;SDS011;69653;52.674;13.574;2023-11-21T14:15:48;16.33;;;9.43;;
80334;SDS011;69653;52.674;13.574;2023-11-21T14:18:16;18.92;;;9.73;;
80334;SDS011;69653;52.674;13.574;2023-11-21T14:20:42;17.73;;;8.43;;
80334;SDS011;69653;52.674;13.574;2023-11-21T14:23:10;16.70;;;9.00;;
80334;SDS011;69653;52.674;13.574;2023-11-21T14:25:37;16.15;;;9.52;;
80334;SDS011;69653;52.674;13.574;2023-11-21T14:28:04;17.60;;;8.50;;
80334;SDS011;69653;52.674;13.574;2023-11-21T14:30:31;18.08;;;9.45;;
80334;SDS011;69653;52.674;13.574;2023-11-21T14:32:58;14.07;;;7.80;;
80334;SDS011;69653;52.674;13.574;2023-11-21T14:35:24;14.63;;;8.48;;
80334;SDS011;69653;52.674;13.574;2023-11-21T14:37:49;16.98;;;8.38;;
80334;SDS011;69653;52.674;13.574;2023-11-21T14:40:15;15.95;;;8.43;;
80334;SDS011;69653;52.674;13.574;2023-11-21T14:42:41;13.45;;;7.57;;